Weather History for Eastover, SC

Change the Weather History Date:

Wednesday, December 5, 2012

  Actual Average Record
Temperature  
Mean Temperature 60 °F -  
Max Temperature 76 °F 59 °F 82 °F (1998)
Min Temperature 45 °F 38 °F 21 °F (2000)
Degree Days  
Heating Degree Days 4    
Growing Degree Days 10 (Base 50)    
Moisture  
Dew Point 49 °F    
Average Humidity 94    
Maximum Humidity 100    
Minimum Humidity 45    
Precipitation  
Precipitation 0.00 in - - ()
Sea Level Pressure  
Sea Level Pressure 30.19 in    
Wind  
Wind Speed 1 mph (West)    
Max Wind Speed 12 mph    
Max Gust Speed 17 mph    
Visibility 3 miles    
Events Fog    
Averages and records for this station are not official NWS values.
T = Trace of Precipitation, MM = Missing Value Source: NWS Daily Summary

Daily Weather History Graph

Daily Weather History Graph

Search for Another Location

Airport:

Trip Planner

Search our weather history database for the weather conditions in past years. The results will help you decide how hot, cold, wet, or windy it might be!

Date:

Astronomy

Dec. 05, 2012 Rise Set
Actual Time 7:14 AM EST 5:14 PM EST
Civil Twilight 6:46 AM EST 5:41 PM EST
Nautical Twilight 6:15 AM EST 6:12 PM EST
Astronomical Twilight 5:45 AM EST 6:42 PM EST
Moon 11:48 PM EST (12/5) 11:49 AM EST (12/5)
Length of Visible Light 10h 54m
Length of Day
9h 59m
Waning Gibbous, 60% of the Moon is Illuminated
Dec 5
Waning Gibbous
Dec 6
Last Quarter
Dec 13
New
Dec 20
First Quarter
Dec 28
Full

Hourly Weather History & Observations

Time (EST) Temp. Windchill Dew Point Humidity Pressure Visibility Wind Dir Wind Speed Gust Speed Precip Events Conditions
12:35 AM 51.8 °F - 51.8 °F 100% 30.23 in 2.5 mi Calm Calm - N/A   Clear
12:39 AM 51.8 °F - 51.8 °F 100% 30.22 in 3.0 mi Calm Calm - N/A   Clear
12:55 AM 50.4 °F - 50.2 °F 99% 30.22 in 8.0 mi Calm Calm - N/A   Clear
1:17 AM 50.0 °F - 50.0 °F 100% 30.22 in 2.5 mi Calm Calm - N/A   Clear
1:19 AM 50.0 °F - 50.0 °F 100% 30.22 in 1.8 mi Calm Calm - N/A   Clear
1:20 AM 50.0 °F - 50.0 °F 100% 30.22 in 1.5 mi Calm Calm - N/A   Clear
1:21 AM 50.0 °F - 50.0 °F 100% 30.22 in 1.2 mi Calm Calm - N/A   Clear
1:22 AM 50.0 °F - 50.0 °F 100% 30.22 in 1.0 mi Calm Calm - N/A   Clear
1:23 AM 50.0 °F - 50.0 °F 100% 30.22 in 0.8 mi Calm Calm - N/A   Clear
1:25 AM 50.0 °F - 50.0 °F 100% 30.22 in 0.5 mi Calm Calm - N/A Fog Fog
1:27 AM 50.0 °F - 50.0 °F 100% 30.22 in 0.5 mi Calm Calm - N/A Fog Fog
1:28 AM 50.0 °F - 50.0 °F 100% 30.22 in 0.5 mi Calm Calm - N/A Fog Fog
1:31 AM 50.0 °F - 50.0 °F 100% 30.22 in 0.5 mi Calm Calm - N/A Fog Fog
1:33 AM 50.0 °F - 50.0 °F 100% 30.22 in 0.5 mi Calm Calm - N/A Fog Fog
1:35 AM 50.0 °F - 50.0 °F 100% 30.22 in 0.8 mi Calm Calm - N/A   Clear
1:38 AM 50.0 °F - 50.0 °F 100% 30.22 in 1.0 mi Calm Calm - N/A   Clear
1:39 AM 50.0 °F - 50.0 °F 100% 30.22 in 1.2 mi SE 3.5 mph - N/A   Clear
1:40 AM 50.0 °F - 50.0 °F 100% 30.22 in 1.5 mi SE 3.5 mph - N/A   Clear
1:46 AM 50.0 °F - 50.0 °F 100% 30.22 in 1.8 mi SSE 4.6 mph - N/A   Clear
1:48 AM 50.0 °F - 50.0 °F 100% 30.22 in 2.5 mi SSE 4.6 mph - N/A   Clear
1:49 AM 50.0 °F - 50.0 °F 100% 30.22 in 3.0 mi SSE 4.6 mph - N/A   Clear
1:55 AM 48.4 °F - 48.2 °F 99% 30.22 in 10.0 mi SE 4.6 mph - N/A   Clear
2:40 AM 48.2 °F - 48.2 °F 100% 30.21 in 2.5 mi Calm Calm - N/A   Clear
2:41 AM 48.2 °F - 48.2 °F 100% 30.21 in 1.8 mi Calm Calm - N/A   Clear
2:42 AM 48.2 °F - 48.2 °F 100% 30.21 in 1.2 mi Calm Calm - N/A   Clear
2:43 AM 48.2 °F - 48.2 °F 100% 30.21 in 1.0 mi Calm Calm - N/A   Clear
2:46 AM 48.2 °F - 48.2 °F 100% 30.21 in 0.8 mi Calm Calm - N/A   Clear
2:47 AM 48.2 °F - 48.2 °F 100% 30.21 in 0.8 mi Calm Calm - N/A   Clear
2:55 AM 48.4 °F - 48.4 °F 100% 30.21 in 0.8 mi Calm Calm - N/A   Clear
3:00 AM 48.2 °F - 48.2 °F 100% 30.21 in 0.5 mi Calm Calm - N/A Fog Fog
3:02 AM 48.2 °F - 48.2 °F 100% 30.21 in 0.5 mi Calm Calm - N/A Fog Fog
3:07 AM 48.2 °F - 48.2 °F 100% 30.20 in 0.8 mi Calm Calm - N/A   Clear
3:09 AM 48.2 °F - 48.2 °F 100% 30.20 in 0.8 mi Calm Calm - N/A   Clear
3:20 AM 48.2 °F - 48.2 °F 100% 30.20 in 0.8 mi Calm Calm - N/A   Clear
3:22 AM 48.2 °F - 48.2 °F 100% 30.20 in 0.8 mi Calm Calm - N/A   Clear
3:37 AM 48.2 °F - 48.2 °F 100% 30.20 in 0.5 mi Calm Calm - N/A Fog Fog
3:49 AM 46.4 °F - 46.4 °F 100% 30.19 in 0.8 mi Calm Calm - N/A   Clear
3:55 AM 47.3 °F - 47.3 °F 100% 30.19 in 0.5 mi Calm Calm - N/A Fog Fog
3:56 AM 48.2 °F - 48.2 °F 100% 30.19 in 0.8 mi Calm Calm - N/A   Clear
3:57 AM 48.2 °F - 48.2 °F 100% 30.19 in 0.8 mi Calm Calm - N/A   Clear
3:59 AM 48.2 °F - 48.2 °F 100% 30.19 in 1.0 mi Calm Calm - N/A   Clear
4:01 AM 48.2 °F - 48.2 °F 100% 30.19 in 1.2 mi Calm Calm - N/A   Clear
4:05 AM 48.2 °F - 48.2 °F 100% 30.19 in 1.0 mi Calm Calm - N/A   Clear
4:06 AM 48.2 °F - 48.2 °F 100% 30.19 in 0.8 mi Calm Calm - N/A   Clear
4:08 AM 48.2 °F - 48.2 °F 100% 30.19 in 0.5 mi Calm Calm - N/A Fog Fog
4:09 AM 48.2 °F - 48.2 °F 100% 30.19 in 0.5 mi Calm Calm - N/A Fog Fog
4:12 AM 48.2 °F - 48.2 °F 100% 30.19 in 0.5 mi Calm Calm - N/A Fog Fog
4:13 AM 48.2 °F - 48.2 °F 100% 30.19 in 0.2 mi Calm Calm - N/A Fog Fog
4:25 AM 46.4 °F - 46.4 °F 100% 30.19 in 0.2 mi Calm Calm - N/A Fog Fog
4:27 AM 46.4 °F - 46.4 °F 100% 30.19 in 0.5 mi Calm Calm - N/A Fog Fog
4:29 AM 46.4 °F - 46.4 °F 100% 30.19 in 0.8 mi Calm Calm - N/A   Clear
4:30 AM 46.4 °F - 46.4 °F 100% 30.19 in 1.0 mi Calm Calm - N/A   Clear
4:31 AM 46.4 °F - 46.4 °F 100% 30.19 in 1.2 mi Calm Calm - N/A   Clear
4:32 AM 46.4 °F - 46.4 °F 100% 30.19 in 1.8 mi Calm Calm - N/A   Clear
4:33 AM 46.4 °F - 46.4 °F 100% 30.19 in 3.0 mi Calm Calm - N/A   Clear
4:41 AM 46.4 °F - 46.4 °F 100% 30.19 in 2.5 mi Calm Calm - N/A   Scattered Clouds
4:42 AM 46.4 °F - 46.4 °F 100% 30.19 in 1.8 mi Calm Calm - N/A   Scattered Clouds
4:43 AM 46.4 °F - 46.4 °F 100% 30.19 in 1.2 mi Calm Calm - N/A   Scattered Clouds
4:44 AM 46.4 °F - 46.4 °F 100% 30.19 in 1.0 mi Calm Calm - N/A   Scattered Clouds
4:45 AM 46.4 °F - 46.4 °F 100% 30.19 in 0.8 mi Calm Calm - N/A   Scattered Clouds
4:47 AM 46.4 °F - 46.4 °F 100% 30.19 in 0.5 mi Calm Calm - N/A Fog Fog
4:55 AM 46.9 °F - 46.9 °F 100% 30.18 in 0.5 mi Calm Calm - N/A Fog Fog
5:01 AM 46.4 °F - 46.4 °F 100% 30.18 in 0.2 mi Calm Calm - N/A Fog Fog
5:40 AM 46.4 °F - 46.4 °F 100% 30.19 in 0.8 mi Calm Calm - N/A   Mist
5:47 AM 46.4 °F - 46.4 °F 100% 30.19 in 1.2 mi Calm Calm - N/A   Clear
5:55 AM 45.9 °F 44.6 °F 45.9 °F 100% 30.19 in 7.0 mi NNW 3.5 mph - N/A   Scattered Clouds
6:55 AM 52.2 °F - 52.2 °F 100% 30.21 in 10.0 mi West 4.6 mph - N/A   Mostly Cloudy
7:55 AM 55.2 °F - 54.1 °F 96% 30.22 in 10.0 mi Calm Calm - N/A   Mostly Cloudy
9:55 AM 61.0 °F - 55.0 °F 81% 30.23 in 10.0 mi WSW 4.6 mph - N/A   Mostly Cloudy
10:55 AM 67.5 °F - 54.1 °F 62% 30.21 in 10.0 mi WSW 6.9 mph - N/A   Mostly Cloudy
11:55 AM 72.9 °F - 54.3 °F 52% 30.17 in 10.0 mi SW 9.2 mph - N/A   Mostly Cloudy
12:55 PM 76.3 °F - 53.8 °F 45% 30.14 in 10.0 mi West 10.4 mph 17.3 mph N/A   Mostly Cloudy
1:55 PM 74.1 °F - 54.3 °F 50% 30.12 in 10.0 mi WSW 11.5 mph - N/A   Overcast
2:55 PM 72.5 °F - 55.2 °F 54% 30.11 in 10.0 mi NW 6.9 mph - N/A   Overcast
3:55 PM 71.6 °F - 53.8 °F 53% 30.11 in 10.0 mi West 4.6 mph - N/A   Mostly Cloudy
4:55 PM 69.8 °F - 54.1 °F 57% 30.11 in 10.0 mi WSW 3.5 mph - N/A   Mostly Cloudy
5:55 PM 65.7 °F - 53.6 °F 65% 30.12 in 10.0 mi Calm Calm - N/A   Mostly Cloudy
6:55 PM 63.3 °F - 53.1 °F 69% 30.13 in 10.0 mi North 5.8 mph - N/A   Mostly Cloudy
7:55 PM 64.8 °F - 57.0 °F 76% 30.15 in 10.0 mi NNE 6.9 mph - N/A   Mostly Cloudy
8:55 PM 63.5 °F - 56.7 °F 78% 30.17 in 10.0 mi NNE 9.2 mph - N/A   Overcast
9:55 PM 61.3 °F - 54.5 °F 78% 30.17 in 10.0 mi North 6.9 mph - N/A   Overcast
10:55 PM 58.3 °F - 51.3 °F 77% 30.17 in 10.0 mi NE 4.6 mph - N/A   Overcast
11:55 PM 56.8 °F - 49.8 °F 77% 30.17 in 10.0 mi NE 5.8 mph - N/A   Overcast